createdAt,value
2019-03-05T00:00:20.013Z,9.70
2019-03-05T00:01:34.603Z,9.70
2019-03-05T00:02:38.704Z,9.70
2019-03-05T00:03:42.808Z,9.70
2019-03-05T00:04:47.034Z,9.70
2019-03-05T00:05:51.140Z,9.70
2019-03-05T00:06:55.227Z,9.70
2019-03-05T00:07:59.338Z,9.70
2019-03-05T00:09:04.473Z,9.70
2019-03-05T00:10:11.106Z,9.70
2019-03-05T00:11:15.475Z,9.70
2019-03-05T00:12:19.571Z,9.60
2019-03-05T00:13:23.656Z,9.70
2019-03-05T00:14:27.742Z,9.60
2019-03-05T00:15:31.897Z,9.70
2019-03-05T00:16:35.999Z,9.60
2019-03-05T00:17:40.113Z,9.60
2019-03-05T00:18:44.260Z,9.60
2019-03-05T00:19:48.358Z,9.60
2019-03-05T00:20:52.449Z,9.70
2019-03-05T00:21:56.519Z,9.60
2019-03-05T00:23:00.692Z,9.70
2019-03-05T00:24:40.358Z,9.70
2019-03-05T00:25:44.434Z,9.60
2019-03-05T00:26:50.944Z,9.70
2019-03-05T00:28:01.352Z,9.70
2019-03-05T00:29:43.821Z,9.70
2019-03-05T00:31:07.298Z,9.70
2019-03-05T00:32:11.374Z,9.70
2019-03-05T00:33:32.792Z,9.70
2019-03-05T00:35:12.727Z,9.70
2019-03-05T00:37:07.273Z,9.70
2019-03-05T00:38:33.653Z,9.70
2019-03-05T00:40:01.875Z,9.70
2019-03-05T00:41:15.955Z,9.70
2019-03-05T00:42:45.879Z,9.70
2019-03-05T00:44:26.659Z,9.70
2019-03-05T00:45:55.467Z,9.70
2019-03-05T00:47:45.329Z,9.70
2019-03-05T00:49:32.326Z,9.80
2019-03-05T00:50:59.816Z,9.80
2019-03-05T00:52:42.845Z,9.80
2019-03-05T00:54:13.424Z,9.80
2019-03-05T00:55:57.379Z,9.80
2019-03-05T00:57:10.941Z,9.80
2019-03-05T00:58:41.244Z,9.80
2019-03-05T01:00:17.408Z,9.80
2019-03-05T01:01:47.250Z,9.80
2019-03-05T01:03:08.711Z,9.80
2019-03-05T01:04:21.268Z,9.80
2019-03-05T01:05:57.274Z,9.80
2019-03-05T01:07:01.362Z,9.80
2019-03-05T01:08:05.419Z,9.80
2019-03-05T01:09:15.420Z,9.70
2019-03-05T01:10:20.924Z,9.70
2019-03-05T01:11:25.219Z,9.70
2019-03-05T01:12:29.489Z,9.70
2019-03-05T01:13:33.559Z,9.60
2019-03-05T01:14:37.611Z,9.60
2019-03-05T01:15:41.689Z,9.60
2019-03-05T01:16:46.614Z,9.50
2019-03-05T01:17:50.675Z,9.50
2019-03-05T01:18:54.726Z,9.50
2019-03-05T01:19:58.791Z,9.50
2019-03-05T01:21:03.243Z,9.40
2019-03-05T01:22:07.343Z,9.50
2019-03-05T01:23:11.432Z,9.40
2019-03-05T01:24:15.505Z,9.40
2019-03-05T01:25:30.553Z,9.40
2019-03-05T01:26:34.683Z,9.40
2019-03-05T01:27:38.746Z,9.30
2019-03-05T01:28:42.807Z,9.30
2019-03-05T01:29:46.890Z,9.30
2019-03-05T01:31:12.893Z,9.30
2019-03-05T01:32:34.371Z,9.20
2019-03-05T01:33:47.624Z,9.20
2019-03-05T01:34:58.048Z,9.20
2019-03-05T01:36:06.903Z,9.20
2019-03-05T01:37:10.975Z,9.10
2019-03-05T01:38:15.047Z,9.10
2019-03-05T01:39:26.451Z,9.10
2019-03-05T01:40:36.356Z,9.00
2019-03-05T01:41:40.426Z,9.00
2019-03-05T01:42:44.519Z,9.00
2019-03-05T01:43:48.592Z,9.00
2019-03-05T01:44:52.663Z,8.90
2019-03-05T01:45:56.731Z,8.90
2019-03-05T01:47:01.095Z,8.90
2019-03-05T01:48:05.168Z,8.90
2019-03-05T01:49:09.235Z,8.80
2019-03-05T01:50:14.094Z,8.80
2019-03-05T01:51:18.182Z,8.80
2019-03-05T01:52:22.359Z,8.80
2019-03-05T01:53:26.727Z,8.80
2019-03-05T01:54:30.791Z,8.80
2019-03-05T01:55:35.232Z,8.80
2019-03-05T01:56:39.384Z,8.70
2019-03-05T01:57:43.480Z,8.70
2019-03-05T01:58:47.526Z,8.70
2019-03-05T01:59:51.584Z,8.70
2019-03-05T02:00:55.645Z,8.70
2019-03-05T02:01:59.705Z,8.70
2019-03-05T02:03:03.779Z,8.70
2019-03-05T02:04:08.145Z,8.70
2019-03-05T02:05:12.308Z,8.70
2019-03-05T02:06:16.383Z,8.70
2019-03-05T02:07:20.442Z,8.70
2019-03-05T02:08:24.551Z,8.70
2019-03-05T02:09:28.686Z,8.70
2019-03-05T02:10:32.775Z,8.70
2019-03-05T02:11:36.844Z,8.60
2019-03-05T02:12:41.030Z,8.70
2019-03-05T02:13:45.113Z,8.70
2019-03-05T02:14:49.282Z,8.70
2019-03-05T02:15:53.336Z,8.70
2019-03-05T02:16:57.402Z,8.70
2019-03-05T02:18:01.450Z,8.70
2019-03-05T02:19:41.281Z,8.70
2019-03-05T02:20:45.347Z,8.70
2019-03-05T02:21:49.398Z,8.70
2019-03-05T02:23:00.415Z,8.60
2019-03-05T02:24:50.177Z,8.60
2019-03-05T02:26:27.546Z,8.60
2019-03-05T02:27:51.783Z,8.60
2019-03-05T02:29:12.304Z,8.60
2019-03-05T02:30:45.812Z,8.60
2019-03-05T02:32:25.831Z,8.60
2019-03-05T02:34:03.300Z,8.60
2019-03-05T02:35:43.825Z,8.60
2019-03-05T02:37:27.655Z,8.60
2019-03-05T02:39:11.977Z,8.60
2019-03-05T02:40:56.337Z,8.60
2019-03-05T02:42:06.403Z,8.60
2019-03-05T02:43:17.381Z,8.60
2019-03-05T02:45:11.696Z,8.60
2019-03-05T02:46:52.506Z,8.60
2019-03-05T02:48:36.084Z,8.60
2019-03-05T02:50:18.644Z,8.60
2019-03-05T02:51:53.871Z,8.60
2019-03-05T02:53:11.590Z,8.60
2019-03-05T02:55:01.519Z,8.60
2019-03-05T02:56:52.515Z,8.60
2019-03-05T02:57:55.152Z,8.70
2019-03-05T02:58:57.788Z,8.60
2019-03-05T03:00:01.879Z,8.60
2019-03-05T03:01:13.619Z,8.60
2019-03-05T03:02:41.515Z,8.70
2019-03-05T03:03:48.532Z,8.70
2019-03-05T03:04:55.256Z,8.70
2019-03-05T03:06:04.518Z,8.70
2019-03-05T03:07:08.579Z,8.70
2019-03-05T03:08:12.652Z,8.70
2019-03-05T03:10:07.299Z,8.70
2019-03-05T03:11:11.382Z,8.70
2019-03-05T03:12:15.444Z,8.70
2019-03-05T03:13:19.512Z,8.70
2019-03-05T03:14:23.601Z,8.70
2019-03-05T03:15:27.949Z,8.70
2019-03-05T03:16:32.037Z,8.70
2019-03-05T03:17:36.092Z,8.70
2019-03-05T03:18:40.134Z,8.70
2019-03-05T03:19:44.192Z,8.70
2019-03-05T03:20:48.254Z,8.70
2019-03-05T03:21:52.405Z,8.70
2019-03-05T03:22:56.497Z,8.70
2019-03-05T03:24:00.543Z,8.70
2019-03-05T03:25:04.837Z,8.70
2019-03-05T03:26:08.887Z,8.80
2019-03-05T03:27:12.998Z,8.70
2019-03-05T03:28:17.115Z,8.80
2019-03-05T03:29:21.196Z,8.80
2019-03-05T03:30:26.393Z,8.80
2019-03-05T03:31:30.492Z,8.80
2019-03-05T03:32:34.665Z,8.80
2019-03-05T03:33:39.108Z,8.80
2019-03-05T03:34:43.248Z,8.80
2019-03-05T03:35:47.430Z,8.80
2019-03-05T03:36:51.479Z,8.90
2019-03-05T03:37:55.552Z,8.90
2019-03-05T03:38:59.600Z,8.90
2019-03-05T03:40:06.168Z,8.90
2019-03-05T03:41:09.507Z,8.90
2019-03-05T03:42:13.682Z,8.90
2019-03-05T03:43:17.764Z,8.90
2019-03-05T03:44:21.807Z,8.90
2019-03-05T03:45:26.615Z,8.90
2019-03-05T03:46:30.678Z,8.90
2019-03-05T03:47:34.735Z,8.90
2019-03-05T03:48:38.839Z,8.90
2019-03-05T03:49:42.897Z,8.90
2019-03-05T03:50:46.962Z,8.90
2019-03-05T03:51:51.535Z,8.90
2019-03-05T03:52:55.839Z,8.80
2019-03-05T03:53:59.953Z,8.80
2019-03-05T03:55:04.032Z,8.80
2019-03-05T03:56:08.085Z,8.80
2019-03-05T03:57:12.283Z,8.70
2019-03-05T03:58:16.387Z,8.70
2019-03-05T03:59:20.540Z,8.70
2019-03-05T04:00:25.007Z,8.70
2019-03-05T04:01:29.098Z,8.70
2019-03-05T04:02:33.186Z,8.70
2019-03-05T04:03:37.261Z,8.70
2019-03-05T04:04:41.331Z,8.70
2019-03-05T04:05:45.418Z,8.70
2019-03-05T04:06:49.496Z,8.70
2019-03-05T04:07:53.613Z,8.80
2019-03-05T04:08:57.722Z,8.70
2019-03-05T04:10:01.799Z,8.80
2019-03-05T04:11:05.925Z,8.80
2019-03-05T04:12:10.026Z,8.80
2019-03-05T04:13:14.202Z,8.80
2019-03-05T04:14:18.322Z,8.80
2019-03-05T04:15:22.381Z,8.80
2019-03-05T04:16:26.464Z,8.80
2019-03-05T04:17:30.536Z,8.80
2019-03-05T04:18:34.709Z,8.80
2019-03-05T04:19:38.789Z,8.80
2019-03-05T04:20:47.113Z,8.80
2019-03-05T04:21:51.183Z,8.80
2019-03-05T04:22:55.259Z,8.80
2019-03-05T04:23:59.378Z,8.90
2019-03-05T04:25:03.460Z,8.90
2019-03-05T04:26:07.522Z,8.90
2019-03-05T04:27:11.586Z,8.90
2019-03-05T04:28:15.663Z,8.90
2019-03-05T04:29:19.743Z,8.90
2019-03-05T04:30:23.832Z,8.90
2019-03-05T04:31:27.891Z,8.90
2019-03-05T04:32:31.973Z,8.90
2019-03-05T04:33:36.112Z,8.90
2019-03-05T04:34:40.170Z,8.90
2019-03-05T04:35:44.286Z,8.90
2019-03-05T04:36:48.371Z,8.80
2019-03-05T04:37:52.435Z,8.80
2019-03-05T04:38:56.500Z,8.80
2019-03-05T04:40:03.170Z,8.80
2019-03-05T04:41:06.384Z,8.80
2019-03-05T04:42:10.451Z,8.80
2019-03-05T04:43:14.528Z,8.80
2019-03-05T04:44:26.212Z,8.80
2019-03-05T04:46:02.115Z,8.80
2019-03-05T04:47:06.174Z,8.80
2019-03-05T04:48:10.511Z,8.80
2019-03-05T04:49:39.631Z,8.80
2019-03-05T04:51:04.653Z,8.80
2019-03-05T04:52:13.720Z,8.80
2019-03-05T04:53:17.786Z,8.80
2019-03-05T04:54:21.872Z,8.80
2019-03-05T04:55:25.931Z,8.80
2019-03-05T04:56:30.001Z,8.80
2019-03-05T04:57:34.417Z,8.80
2019-03-05T04:58:38.607Z,8.80
2019-03-05T04:59:42.668Z,8.80
2019-03-05T05:00:46.783Z,8.80
2019-03-05T05:01:50.895Z,8.80
2019-03-05T05:02:54.966Z,8.80
2019-03-05T05:03:59.019Z,8.80
2019-03-05T05:05:03.111Z,8.80
2019-03-05T05:06:07.157Z,8.80
2019-03-05T05:07:11.242Z,8.90
2019-03-05T05:08:15.310Z,8.80
2019-03-05T05:09:19.416Z,8.90
2019-03-05T05:10:23.594Z,8.90
2019-03-05T05:11:27.662Z,8.90
2019-03-05T05:12:31.739Z,8.90
2019-03-05T05:13:35.799Z,8.90
2019-03-05T05:14:39.886Z,8.90
2019-03-05T05:15:43.925Z,8.90
2019-03-05T05:16:47.988Z,8.90
2019-03-05T05:17:52.176Z,8.90
2019-03-05T05:18:56.226Z,8.90
2019-03-05T05:20:00.371Z,8.80
2019-03-05T05:21:04.479Z,8.80
2019-03-05T05:22:08.812Z,8.80
2019-03-05T05:23:12.891Z,8.90
2019-03-05T05:24:16.964Z,8.80
2019-03-05T05:25:21.040Z,8.80
2019-03-05T05:26:25.790Z,8.80
2019-03-05T05:27:30.047Z,8.80
2019-03-05T05:28:34.124Z,8.80
2019-03-05T05:29:38.177Z,8.80
2019-03-05T05:30:42.243Z,8.80
2019-03-05T05:31:46.520Z,8.80
2019-03-05T05:32:50.663Z,8.80
2019-03-05T05:33:54.823Z,8.80
2019-03-05T05:34:58.888Z,8.80
2019-03-05T05:36:03.009Z,8.80
2019-03-05T05:37:08.232Z,8.70
2019-03-05T05:38:12.315Z,8.70
2019-03-05T05:39:52.206Z,8.70
2019-03-05T05:40:56.560Z,8.70
2019-03-05T05:42:00.626Z,8.80
2019-03-05T05:43:05.620Z,8.70
2019-03-05T05:44:09.700Z,8.70
2019-03-05T05:45:15.608Z,8.70
2019-03-05T05:46:19.675Z,8.70
2019-03-05T05:47:23.823Z,8.80
2019-03-05T05:48:27.882Z,8.80
2019-03-05T05:49:31.956Z,8.80
2019-03-05T05:50:36.042Z,8.80
2019-03-05T05:51:40.089Z,8.80
2019-03-05T05:52:44.145Z,8.80
2019-03-05T05:53:48.274Z,8.80
2019-03-05T05:54:52.334Z,8.80
2019-03-05T05:55:56.396Z,8.80
2019-03-05T05:57:00.450Z,8.80
2019-03-05T05:58:04.504Z,8.80
2019-03-05T05:59:08.551Z,8.80
2019-03-05T06:00:14.370Z,8.80
2019-03-05T06:01:18.449Z,8.80
2019-03-05T06:02:22.519Z,8.80
2019-03-05T06:03:26.580Z,8.80
2019-03-05T06:04:30.652Z,8.80
2019-03-05T06:05:34.730Z,8.80
2019-03-05T06:06:38.794Z,8.80
2019-03-05T06:07:42.847Z,8.90
2019-03-05T06:08:46.898Z,8.90
2019-03-05T06:09:50.974Z,8.90
2019-03-05T06:10:55.231Z,8.90
2019-03-05T06:11:59.378Z,8.90
2019-03-05T06:13:03.461Z,8.90
2019-03-05T06:14:07.568Z,8.90
2019-03-05T06:15:11.635Z,8.90
2019-03-05T06:16:16.011Z,8.90
2019-03-05T06:17:20.112Z,8.90
2019-03-05T06:18:24.269Z,8.90
2019-03-05T06:19:30.143Z,8.90
2019-03-05T06:20:34.222Z,8.90
2019-03-05T06:21:38.363Z,8.90
2019-03-05T06:22:42.423Z,8.90
2019-03-05T06:23:46.493Z,8.90
2019-03-05T06:24:50.564Z,8.90
2019-03-05T06:25:54.656Z,8.90
2019-03-05T06:26:58.734Z,8.90
2019-03-05T06:28:02.875Z,8.90
2019-03-05T06:29:06.970Z,8.80
2019-03-05T06:30:13.374Z,8.80
2019-03-05T06:31:17.556Z,8.70
2019-03-05T06:32:21.682Z,8.70
2019-03-05T06:33:25.744Z,8.70
2019-03-05T06:34:29.798Z,8.60
2019-03-05T06:35:33.868Z,8.60
2019-03-05T06:36:55.612Z,8.60
2019-03-05T06:37:59.667Z,8.60
2019-03-05T06:39:06.156Z,8.60
2019-03-05T06:40:13.362Z,8.60
2019-03-05T06:41:17.426Z,8.60
2019-03-05T06:42:21.489Z,8.60
2019-03-05T06:43:25.559Z,8.60
2019-03-05T06:44:29.871Z,8.50
2019-03-05T06:45:33.923Z,8.50
2019-03-05T06:46:38.435Z,8.60
2019-03-05T06:47:42.635Z,8.60
2019-03-05T06:48:46.708Z,8.60
2019-03-05T06:49:50.761Z,8.60
2019-03-05T06:50:54.847Z,8.60
2019-03-05T06:51:58.920Z,8.50
2019-03-05T06:53:03.063Z,8.60
2019-03-05T06:54:07.198Z,8.60
2019-03-05T06:55:11.859Z,8.50
2019-03-05T06:56:15.928Z,8.60
2019-03-05T06:57:19.993Z,8.50
2019-03-05T06:58:24.050Z,8.60
2019-03-05T06:59:28.116Z,8.60
2019-03-05T07:00:33.395Z,8.60
2019-03-05T07:01:37.752Z,8.60
2019-03-05T07:02:41.804Z,8.60
2019-03-05T07:03:45.871Z,8.60
2019-03-05T07:04:59.036Z,8.60
2019-03-05T07:06:38.772Z,8.60
2019-03-05T07:07:42.854Z,8.60
2019-03-05T07:08:55.419Z,8.60
2019-03-05T07:10:37.778Z,8.60
2019-03-05T07:12:28.950Z,8.60
2019-03-05T07:13:33.354Z,8.60
2019-03-05T07:15:30.714Z,8.60
2019-03-05T07:16:45.575Z,8.60
2019-03-05T07:17:54.075Z,8.60
2019-03-05T07:19:17.378Z,8.60
2019-03-05T07:20:42.441Z,8.60
2019-03-05T07:22:28.867Z,8.60
2019-03-05T07:24:08.381Z,8.60
2019-03-05T07:25:12.439Z,8.60
2019-03-05T07:26:16.612Z,8.60
2019-03-05T07:27:31.820Z,8.60
2019-03-05T07:28:35.903Z,8.50
2019-03-05T07:29:40.537Z,8.60
2019-03-05T07:30:44.612Z,8.50
2019-03-05T07:31:48.673Z,8.50
2019-03-05T07:32:53.219Z,8.60
2019-03-05T07:33:57.294Z,8.50
2019-03-05T07:35:01.361Z,8.60
2019-03-05T07:36:05.531Z,8.50
2019-03-05T07:37:09.827Z,8.50
2019-03-05T07:38:13.929Z,8.50
2019-03-05T07:39:21.455Z,8.50
2019-03-05T07:40:25.532Z,8.60
2019-03-05T07:41:29.606Z,8.60
2019-03-05T07:42:33.680Z,8.60
2019-03-05T07:43:37.793Z,8.60
2019-03-05T07:44:41.854Z,8.60
2019-03-05T07:45:45.933Z,8.60
2019-03-05T07:46:50.015Z,8.60
2019-03-05T07:47:54.076Z,8.60
2019-03-05T07:48:58.148Z,8.60
2019-03-05T07:50:02.206Z,8.60
2019-03-05T07:51:06.275Z,8.60
2019-03-05T07:52:10.339Z,8.70
2019-03-05T07:53:15.517Z,8.70
2019-03-05T07:54:19.609Z,8.70
2019-03-05T07:55:23.737Z,8.70
2019-03-05T07:56:27.790Z,8.70
2019-03-05T07:57:31.842Z,8.70
2019-03-05T07:58:35.918Z,8.70
2019-03-05T07:59:39.983Z,8.80
2019-03-05T08:00:44.120Z,8.80
2019-03-05T08:01:48.181Z,8.80
2019-03-05T08:02:52.250Z,8.80
2019-03-05T08:03:56.646Z,8.80
2019-03-05T08:05:00.768Z,8.80
2019-03-05T08:06:04.882Z,8.80
2019-03-05T08:07:08.947Z,8.80
2019-03-05T08:08:48.799Z,8.80
2019-03-05T08:09:52.939Z,8.80
2019-03-05T08:10:57.033Z,8.80
2019-03-05T08:12:47.193Z,8.80
2019-03-05T08:14:28.123Z,8.80
2019-03-05T08:16:23.025Z,8.90
2019-03-05T08:17:27.339Z,8.90
2019-03-05T08:18:31.467Z,8.90
2019-03-05T08:19:35.542Z,8.90
2019-03-05T08:20:39.615Z,8.90
2019-03-05T08:21:43.710Z,9.00
2019-03-05T08:22:47.793Z,9.00
2019-03-05T08:23:51.937Z,9.00
2019-03-05T08:24:55.994Z,9.00
2019-03-05T08:26:00.062Z,9.00
2019-03-05T08:27:04.228Z,9.00
2019-03-05T08:28:08.279Z,9.00
2019-03-05T08:29:12.341Z,9.00
2019-03-05T08:30:16.612Z,9.00
2019-03-05T08:31:20.950Z,9.00
2019-03-05T08:32:25.022Z,9.00
2019-03-05T08:33:29.094Z,9.00
2019-03-05T08:34:33.159Z,9.00
2019-03-05T08:35:37.230Z,9.00
2019-03-05T08:36:41.313Z,9.00
2019-03-05T08:37:45.447Z,9.00
2019-03-05T08:38:49.529Z,9.00
2019-03-05T08:39:53.838Z,9.00
2019-03-05T08:40:58.212Z,9.00
2019-03-05T08:42:02.291Z,9.00
2019-03-05T08:43:06.398Z,9.00
2019-03-05T08:44:10.471Z,9.00
2019-03-05T08:45:14.804Z,9.00
2019-03-05T08:46:18.883Z,9.00
2019-03-05T08:47:22.937Z,9.00
2019-03-05T08:48:27.017Z,9.00
2019-03-05T08:49:31.089Z,9.00
2019-03-05T08:50:35.135Z,9.10
2019-03-05T08:51:39.193Z,9.10
2019-03-05T08:52:43.242Z,9.10
2019-03-05T08:53:49.769Z,9.10
2019-03-05T08:54:53.137Z,9.20
2019-03-05T08:55:57.235Z,9.20
2019-03-05T08:57:01.292Z,9.20
2019-03-05T08:58:05.379Z,9.30
2019-03-05T08:59:09.447Z,9.30
2019-03-05T09:00:14.661Z,9.30
2019-03-05T09:01:19.006Z,9.40
2019-03-05T09:02:23.088Z,9.40
2019-03-05T09:03:27.193Z,9.40
2019-03-05T09:04:31.274Z,9.40
2019-03-05T09:05:35.337Z,9.40
2019-03-05T09:06:39.410Z,9.40
2019-03-05T09:07:43.526Z,9.40
2019-03-05T09:08:47.606Z,9.30
2019-03-05T09:09:51.675Z,9.30
2019-03-05T09:10:55.770Z,9.30
2019-03-05T09:11:59.910Z,9.30
2019-03-05T09:13:04.334Z,9.30
2019-03-05T09:14:08.427Z,9.30
2019-03-05T09:15:14.315Z,9.30
2019-03-05T09:16:18.395Z,9.30
2019-03-05T09:17:22.486Z,9.30
2019-03-05T09:18:26.827Z,9.30
2019-03-05T09:19:30.913Z,9.30
2019-03-05T09:20:34.979Z,9.40
2019-03-05T09:21:39.066Z,9.40
2019-03-05T09:22:43.144Z,9.40
2019-03-05T09:23:47.219Z,9.50
2019-03-05T09:24:51.307Z,9.60
2019-03-05T09:25:55.391Z,9.60
2019-03-05T09:26:59.536Z,9.60
2019-03-05T09:28:03.620Z,9.60
2019-03-05T09:29:07.793Z,9.70
2019-03-05T09:30:15.231Z,9.70
2019-03-05T09:31:19.377Z,9.80
2019-03-05T09:32:23.474Z,9.80
2019-03-05T09:33:27.538Z,9.80
2019-03-05T09:34:31.627Z,9.80
2019-03-05T09:35:35.716Z,9.80
2019-03-05T09:36:50.043Z,9.90
2019-03-05T09:37:45.803Z,9.90
2019-03-05T09:38:49.903Z,10.00
2019-03-05T09:39:54.007Z,10.00
2019-03-05T09:40:58.132Z,10.00
2019-03-05T09:42:02.190Z,10.00
2019-03-05T09:43:06.268Z,10.00
2019-03-05T09:44:10.364Z,10.10
2019-03-05T09:45:15.676Z,10.10
2019-03-05T09:46:19.752Z,10.00
2019-03-05T09:47:23.806Z,10.00
2019-03-05T09:48:27.878Z,10.00
2019-03-05T09:49:31.965Z,10.00
2019-03-05T09:50:36.075Z,10.00
2019-03-05T09:51:40.182Z,10.00
2019-03-05T09:52:54.405Z,10.00
2019-03-05T09:53:50.055Z,10.00
2019-03-05T09:54:54.130Z,10.00
2019-03-05T09:55:58.215Z,10.00
2019-03-05T09:57:02.595Z,10.00
2019-03-05T09:58:08.632Z,10.00
2019-03-05T09:59:13.004Z,10.00
2019-03-05T10:00:18.733Z,10.00
2019-03-05T10:01:23.211Z,10.00
2019-03-05T10:02:27.402Z,10.00
2019-03-05T10:03:31.475Z,9.90
2019-03-05T10:04:35.563Z,9.90
2019-03-05T10:05:39.667Z,9.90
2019-03-05T10:06:43.735Z,9.90
2019-03-05T10:07:48.087Z,9.90
2019-03-05T10:08:52.156Z,9.90
2019-03-05T10:09:56.492Z,9.90
2019-03-05T10:11:00.639Z,9.90
2019-03-05T10:12:04.734Z,9.90
2019-03-05T10:13:09.085Z,9.90
2019-03-05T10:14:13.152Z,10.00
2019-03-05T10:15:18.495Z,10.00
2019-03-05T10:16:22.595Z,10.00
2019-03-05T10:17:37.458Z,10.00
2019-03-05T10:18:32.570Z,10.00
2019-03-05T10:19:38.460Z,10.00
2019-03-05T10:20:42.492Z,10.00
2019-03-05T10:21:46.784Z,10.00
2019-03-05T10:22:51.022Z,9.90
2019-03-05T10:23:55.099Z,10.00
2019-03-05T10:25:05.961Z,10.00
2019-03-05T10:26:04.984Z,10.00
2019-03-05T10:27:09.047Z,10.00
2019-03-05T10:28:13.116Z,10.10
2019-03-05T10:29:17.182Z,10.10
2019-03-05T10:30:24.973Z,10.10
2019-03-05T10:31:28.936Z,10.20
2019-03-05T10:32:32.998Z,10.20
2019-03-05T10:33:37.052Z,10.30
2019-03-05T10:34:41.131Z,10.30
2019-03-05T10:35:45.320Z,10.40
2019-03-05T10:36:49.403Z,10.40
2019-03-05T10:37:54.250Z,10.50
2019-03-05T10:38:58.328Z,10.50
2019-03-05T10:40:02.417Z,10.50
2019-03-05T10:41:06.486Z,10.60
2019-03-05T10:42:10.827Z,10.60
2019-03-05T10:43:14.963Z,10.60
2019-03-05T10:44:19.027Z,10.70
2019-03-05T10:45:23.104Z,10.70
2019-03-05T10:46:27.188Z,10.70
2019-03-05T10:47:31.278Z,10.70
2019-03-05T10:48:35.432Z,10.70
2019-03-05T10:49:39.511Z,10.70
2019-03-05T10:50:43.850Z,10.70
2019-03-05T10:51:47.912Z,10.70
2019-03-05T10:52:52.010Z,10.70
2019-03-05T10:53:56.116Z,10.70
2019-03-05T10:55:00.344Z,10.80
2019-03-05T10:56:04.452Z,10.80
2019-03-05T10:57:08.520Z,10.80
2019-03-05T10:58:13.292Z,10.80
2019-03-05T10:59:17.375Z,10.80
2019-03-05T11:00:29.047Z,10.90
2019-03-05T11:01:33.119Z,10.90
2019-03-05T11:02:37.459Z,10.90
2019-03-05T11:03:41.677Z,10.90
2019-03-05T11:04:46.139Z,10.90
2019-03-05T11:05:50.395Z,10.90
2019-03-05T11:06:54.491Z,10.90
2019-03-05T11:07:58.562Z,10.90
2019-03-05T11:09:02.667Z,10.90
2019-03-05T11:10:08.843Z,10.90
2019-03-05T11:11:13.973Z,10.90
2019-03-05T11:12:18.292Z,10.90
2019-03-05T11:13:22.345Z,10.90
2019-03-05T11:14:26.448Z,10.90
2019-03-05T11:15:30.844Z,10.90
2019-03-05T11:16:34.933Z,10.90
2019-03-05T11:17:39.012Z,10.90
2019-03-05T11:18:43.114Z,10.90
2019-03-05T11:19:47.166Z,10.90
2019-03-05T11:20:51.241Z,10.90
2019-03-05T11:21:55.349Z,10.90
2019-03-05T11:22:59.423Z,10.90
2019-03-05T11:24:03.508Z,10.90
2019-03-05T11:25:08.603Z,10.80
2019-03-05T11:26:12.672Z,10.80
2019-03-05T11:27:16.765Z,10.90
2019-03-05T11:28:20.844Z,10.90
2019-03-05T11:29:24.947Z,10.90
2019-03-05T11:30:36.077Z,10.90
2019-03-05T11:31:34.918Z,10.90
2019-03-05T11:32:38.994Z,10.90
2019-03-05T11:33:43.099Z,10.90
2019-03-05T11:34:47.187Z,10.90
2019-03-05T11:35:51.267Z,10.90
2019-03-05T11:36:55.343Z,10.90
2019-03-05T11:37:59.415Z,10.80
2019-03-05T11:39:03.987Z,10.80
2019-03-05T11:40:20.501Z,10.80
2019-03-05T11:41:15.618Z,10.80
2019-03-05T11:42:19.707Z,10.80
2019-03-05T11:43:23.803Z,10.80
2019-03-05T11:44:27.890Z,10.80
2019-03-05T11:45:31.966Z,10.80
2019-03-05T11:46:36.066Z,10.90
2019-03-05T11:47:40.170Z,10.80
2019-03-05T11:48:44.244Z,10.90
2019-03-05T11:49:48.352Z,10.90
2019-03-05T11:50:52.429Z,10.90
2019-03-05T11:51:56.538Z,10.90
2019-03-05T11:53:00.631Z,10.90
2019-03-05T11:54:04.834Z,10.90
2019-03-05T11:55:10.333Z,10.90
2019-03-05T11:56:14.458Z,10.90
2019-03-05T11:57:18.588Z,10.90
2019-03-05T11:58:22.763Z,10.90
2019-03-05T11:59:26.867Z,11.00
2019-03-05T12:00:36.124Z,11.00
2019-03-05T12:01:43.610Z,11.00
2019-03-05T12:02:48.425Z,11.00
2019-03-05T12:03:52.734Z,11.00
2019-03-05T12:04:56.799Z,11.00
2019-03-05T12:06:00.891Z,11.00
2019-03-05T12:07:04.976Z,11.00
2019-03-05T12:08:09.034Z,11.10
2019-03-05T12:09:13.114Z,11.10
2019-03-05T12:10:18.562Z,11.10
2019-03-05T12:11:22.954Z,11.10
2019-03-05T12:12:27.040Z,11.20
2019-03-05T12:13:31.116Z,11.20
2019-03-05T12:14:35.175Z,11.30
2019-03-05T12:15:39.483Z,11.40
2019-03-05T12:16:43.560Z,11.40
2019-03-05T12:17:47.654Z,11.40
2019-03-05T12:18:51.994Z,11.40
2019-03-05T12:19:56.073Z,11.50
2019-03-05T12:21:00.181Z,11.50
2019-03-05T12:22:04.311Z,11.50
2019-03-05T12:23:10.330Z,11.50
2019-03-05T12:24:14.183Z,11.50
2019-03-05T12:25:18.265Z,11.60
2019-03-05T12:26:22.355Z,11.50
2019-03-05T12:27:27.371Z,11.60
2019-03-05T12:28:31.704Z,11.50
2019-03-05T12:29:35.788Z,11.50
2019-03-05T12:30:39.870Z,11.50
2019-03-05T12:31:44.030Z,11.50
2019-03-05T12:32:48.098Z,11.40
2019-03-05T12:33:52.170Z,11.50
2019-03-05T12:34:56.244Z,11.50
2019-03-05T12:36:00.322Z,11.50
2019-03-05T12:37:04.423Z,11.50
2019-03-05T12:38:08.490Z,11.50
2019-03-05T12:39:13.918Z,11.60
2019-03-05T12:40:18.032Z,11.60
2019-03-05T12:41:22.143Z,11.70
2019-03-05T12:42:26.298Z,11.70
2019-03-05T12:43:31.137Z,11.70
2019-03-05T12:44:36.201Z,11.70
2019-03-05T12:45:40.296Z,11.70
2019-03-05T12:46:44.399Z,11.80
2019-03-05T12:47:48.500Z,11.80
2019-03-05T12:48:52.604Z,11.80
2019-03-05T12:49:56.995Z,11.90
2019-03-05T12:51:04.880Z,11.90
2019-03-05T12:52:08.314Z,11.90
2019-03-05T12:53:12.420Z,11.90
2019-03-05T12:54:16.495Z,11.90
2019-03-05T12:55:20.574Z,12.00
2019-03-05T12:56:24.671Z,12.00
2019-03-05T12:57:28.731Z,12.00
2019-03-05T12:58:32.846Z,12.00
2019-03-05T12:59:36.936Z,12.00
2019-03-05T13:00:41.109Z,12.00
2019-03-05T13:01:45.187Z,12.00
2019-03-05T13:02:49.623Z,12.00
2019-03-05T13:03:53.723Z,12.00
2019-03-05T13:04:57.798Z,12.00
2019-03-05T13:06:01.901Z,12.00
2019-03-05T13:07:06.204Z,12.00
2019-03-05T13:08:11.478Z,12.00
2019-03-05T13:09:19.513Z,11.90
2019-03-05T13:10:23.835Z,11.90
2019-03-05T13:11:27.924Z,11.90
2019-03-05T13:12:32.235Z,11.90
2019-03-05T13:13:37.872Z,11.90
2019-03-05T13:14:42.763Z,11.90
2019-03-05T13:15:47.736Z,11.90
2019-03-05T13:16:51.812Z,11.90
2019-03-05T13:17:55.959Z,11.80
2019-03-05T13:19:00.135Z,11.80
2019-03-05T13:20:04.445Z,11.80
2019-03-05T13:21:08.790Z,11.80
2019-03-05T13:22:12.990Z,11.80
2019-03-05T13:23:17.216Z,11.80
2019-03-05T13:24:21.396Z,11.80
2019-03-05T13:25:28.505Z,11.70
2019-03-05T13:26:31.286Z,11.70
2019-03-05T13:27:35.379Z,11.70
2019-03-05T13:28:40.525Z,11.70
2019-03-05T13:29:45.243Z,11.80
2019-03-05T13:30:49.326Z,11.80
2019-03-05T13:31:53.444Z,11.80
2019-03-05T13:32:59.066Z,11.80
2019-03-05T13:34:03.411Z,11.80
2019-03-05T13:35:09.661Z,11.90
2019-03-05T13:36:16.410Z,11.90
2019-03-05T13:37:19.520Z,11.90
2019-03-05T13:38:23.691Z,12.00
2019-03-05T13:39:28.062Z,12.00
2019-03-05T13:40:34.083Z,12.00
2019-03-05T13:41:37.930Z,12.00
2019-03-05T13:42:42.011Z,12.00
2019-03-05T13:43:46.115Z,12.10
2019-03-05T13:44:50.483Z,12.10
2019-03-05T13:45:54.583Z,12.10
2019-03-05T13:47:00.910Z,12.10
2019-03-05T13:48:19.619Z,12.20
2019-03-05T13:49:56.242Z,12.20
2019-03-05T13:51:10.649Z,12.20
2019-03-05T13:53:00.263Z,12.20
2019-03-05T13:54:37.973Z,12.20
2019-03-05T13:56:26.120Z,12.20
2019-03-05T13:58:25.119Z,12.20
2019-03-05T13:59:49.001Z,12.30
2019-03-05T14:00:53.074Z,12.40
2019-03-05T14:01:57.388Z,12.40
2019-03-05T14:03:26.095Z,12.40
2019-03-05T14:04:50.987Z,12.50
2019-03-05T14:06:28.932Z,12.50
2019-03-05T14:08:29.459Z,12.50
2019-03-05T14:09:32.229Z,12.60
2019-03-05T14:10:36.348Z,12.60
2019-03-05T14:11:40.558Z,12.50
2019-03-05T14:12:44.693Z,12.50
2019-03-05T14:13:48.771Z,12.30
2019-03-05T14:14:52.867Z,12.20
2019-03-05T14:15:56.965Z,12.10
2019-03-05T14:17:20.515Z,12.10
2019-03-05T14:18:24.657Z,12.00
2019-03-05T14:19:28.822Z,12.00
2019-03-05T14:20:35.253Z,12.00
2019-03-05T14:21:38.813Z,12.00
2019-03-05T14:22:42.872Z,12.00
2019-03-05T14:23:47.045Z,11.90
2019-03-05T14:25:01.679Z,11.90
2019-03-05T14:25:57.976Z,12.00
2019-03-05T14:27:02.131Z,12.00
2019-03-05T14:28:06.259Z,12.00
2019-03-05T14:29:10.389Z,12.00
2019-03-05T14:30:16.901Z,12.00
2019-03-05T14:31:21.006Z,12.00
2019-03-05T14:32:25.198Z,12.00
2019-03-05T14:33:29.624Z,12.00
2019-03-05T14:34:34.040Z,12.10
2019-03-05T14:35:38.404Z,12.10
2019-03-05T14:36:42.567Z,12.10
2019-03-05T14:37:46.748Z,12.10
2019-03-05T14:38:50.918Z,12.10
2019-03-05T14:39:55.056Z,12.10
2019-03-05T14:40:59.238Z,12.10
2019-03-05T14:42:04.970Z,12.20
2019-03-05T14:43:09.199Z,12.20
2019-03-05T14:44:13.559Z,12.10
2019-03-05T14:45:19.679Z,12.10
2019-03-05T14:46:25.408Z,12.10
2019-03-05T14:47:29.539Z,12.10
2019-03-05T14:48:33.713Z,12.20
2019-03-05T14:49:40.473Z,12.20
2019-03-05T14:50:46.883Z,12.20